Time;durP1;ratioP1;P1;durP2;ratioP2;P2;SDS_P1;SDS_P2;PMS_P1;PMS_P2;Temp;Humidity;BMP_temperature;BMP_pressure;BME280_temperature;BME280_humidity;BME280_pressure;Samples;Min_cycle;Max_cycle;Signal;HPM_P1;HPM_P2
2022/10/08 00:00:59;;;;;;;9.00;2.05;;;14.50;99.90;;;;;;5070288;28;20022;-80
2022/10/08 00:03:27;;;;;;;9.30;2.10;;;14.50;99.90;;;;;;5063478;28;20024;-80
2022/10/08 00:06:05;;;;;;;14.70;2.25;;;14.40;99.90;;;;;;5064303;28;20037;-80
2022/10/08 00:08:36;;;;;;;16.48;2.45;;;14.50;99.90;;;;;;5080438;28;20055;-80
2022/10/08 00:11:08;;;;;;;12.20;2.53;;;14.50;99.90;;;;;;5070906;28;20252;-80
2022/10/08 00:13:42;;;;;;;16.90;2.75;;;14.50;99.90;;;;;;5070643;28;20063;-80
2022/10/08 00:16:14;;;;;;;8.98;2.47;;;14.50;99.90;;;;;;5069277;28;20104;-80
2022/10/08 00:18:43;;;;;;;11.45;2.50;;;14.60;99.90;;;;;;5068569;28;20052;-80
2022/10/08 00:21:15;;;;;;;10.32;2.67;;;14.60;99.90;;;;;;5065732;28;20033;-80
2022/10/08 00:23:43;;;;;;;7.07;1.92;;;14.60;99.90;;;;;;5062091;28;20055;-80
2022/10/08 00:26:10;;;;;;;8.90;1.95;;;14.70;99.90;;;;;;5063261;28;20020;-80
2022/10/08 00:28:37;;;;;;;12.32;2.10;;;14.70;99.90;;;;;;5075474;28;20029;-80
2022/10/08 00:31:15;;;;;;;10.52;1.90;;;14.70;99.90;;;;;;5058948;28;20036;-80
2022/10/08 00:33:40;;;;;;;13.52;2.35;;;14.80;99.90;;;;;;5075619;28;20040;-80
2022/10/08 00:36:11;;;;;;;11.48;1.60;;;14.70;99.90;;;;;;5069135;28;20029;-80
2022/10/08 00:38:37;;;;;;;9.48;2.25;;;14.70;99.90;;;;;;5071633;28;20249;-80
2022/10/08 00:41:05;;;;;;;10.10;2.15;;;14.70;99.90;;;;;;5067162;28;20029;-80
2022/10/08 00:43:44;;;;;;;8.05;1.73;;;14.70;99.90;;;;;;5068907;28;20028;-80
2022/10/08 00:46:32;;;;;;;9.23;2.08;;;14.80;99.90;;;;;;5066641;28;20082;-80
2022/10/08 00:49:14;;;;;;;12.30;2.28;;;14.70;99.90;;;;;;5065122;28;20029;-80
2022/10/08 00:51:53;;;;;;;12.38;2.03;;;14.70;99.90;;;;;;5064414;28;20087;-80
2022/10/08 00:54:21;;;;;;;12.07;2.20;;;14.70;99.90;;;;;;5062435;28;20029;-80
2022/10/08 00:56:51;;;;;;;14.77;2.55;;;14.80;99.90;;;;;;5061860;28;20296;-80
2022/10/08 00:59:17;;;;;;;9.95;1.95;;;14.80;99.90;;;;;;5074484;28;20032;-80
2022/10/08 01:01:43;;;;;;;14.40;2.10;;;14.70;99.90;;;;;;5063074;28;20300;-80
2022/10/08 01:04:10;;;;;;;11.57;2.33;;;14.70;99.90;;;;;;5062363;28;20024;-80
2022/10/08 01:06:47;;;;;;;14.93;2.45;;;14.70;99.90;;;;;;5059073;28;20283;-80
2022/10/08 01:09:22;;;;;;;12.00;2.35;;;14.70;99.90;;;;;;5064859;28;20035;-79
2022/10/08 01:11:59;;;;;;;12.48;2.42;;;14.70;99.90;;;;;;5071801;28;20043;-80
2022/10/08 01:14:55;;;;;;;15.45;3.03;;;14.80;99.90;;;;;;5063574;28;20179;-80
2022/10/08 01:17:39;;;;;;;14.80;2.33;;;14.80;99.90;;;;;;5063601;28;20349;-80
2022/10/08 01:20:30;;;;;;;16.23;3.08;;;14.80;99.90;;;;;;5070383;28;20073;-80
2022/10/08 01:23:50;;;;;;;12.43;2.38;;;14.70;99.90;;;;;;5066613;28;20029;-80
2022/10/08 01:26:31;;;;;;;12.85;1.90;;;14.70;99.90;;;;;;5018581;28;20064;-80
2022/10/08 01:29:16;;;;;;;8.85;1.73;;;14.70;99.90;;;;;;5056121;28;20096;-80
2022/10/08 01:31:47;;;;;;;13.73;2.22;;;14.70;99.90;;;;;;5057326;28;20257;-81
2022/10/08 01:34:45;;;;;;;9.82;2.05;;;14.70;99.90;;;;;;5065551;28;20043;-80
2022/10/08 01:37:20;;;;;;;11.02;2.13;;;14.60;99.90;;;;;;5074181;28;20063;-79
2022/10/08 01:39:48;;;;;;;11.18;2.22;;;14.60;99.90;;;;;;5063303;28;20036;-81
2022/10/08 01:42:15;;;;;;;11.32;2.50;;;14.60;99.90;;;;;;5074298;28;20055;-82
2022/10/08 01:44:46;;;;;;;17.48;3.00;;;14.60;99.90;;;;;;5059017;28;20489;-80
2022/10/08 01:47:16;;;;;;;10.70;1.83;;;14.60;99.90;;;;;;5064982;28;20020;-80
2022/10/08 01:49:49;;;;;;;13.70;2.17;;;14.60;99.90;;;;;;5060439;28;20497;-84
2022/10/08 01:52:30;;;;;;;9.25;2.40;;;14.60;99.90;;;;;;5063283;28;20075;-80
2022/10/08 01:55:02;;;;;;;14.93;2.50;;;14.60;99.90;;;;;;5062484;28;20225;-80
2022/10/08 01:57:31;;;;;;;14.10;2.55;;;14.50;99.90;;;;;;5067029;28;20024;-80
2022/10/08 02:00:03;;;;;;;14.30;2.72;;;14.50;99.90;;;;;;5070853;28;20029;-80
2022/10/08 02:02:29;;;;;;;12.43;2.42;;;14.50;99.90;;;;;;5066475;28;20335;-80
2022/10/08 02:04:55;;;;;;;19.25;3.33;;;14.60;99.90;;;;;;5061898;28;20021;-80
2022/10/08 02:07:24;;;;;;;8.30;2.47;;;14.50;99.90;;;;;;5060943;28;20032;-80
2022/10/08 02:09:53;;;;;;;12.45;2.58;;;14.50;99.90;;;;;;5080310;28;20016;-80
2022/10/08 02:12:19;;;;;;;10.57;1.85;;;14.50;99.90;;;;;;5071462;28;20028;-80
2022/10/08 02:14:54;;;;;;;12.07;2.40;;;14.40;99.90;;;;;;5076790;28;20041;-80
2022/10/08 02:17:35;;;;;;;10.30;1.95;;;14.40;99.90;;;;;;5065122;28;20051;-81
2022/10/08 02:20:24;;;;;;;13.00;2.95;;;14.30;99.90;;;;;;5065910;28;20087;-80
2022/10/08 02:23:12;;;;;;;10.73;2.10;;;14.30;99.90;;;;;;5061631;28;20139;-80
2022/10/08 02:25:50;;;;;;;12.95;2.13;;;14.10;99.90;;;;;;5062455;28;20058;-80
2022/10/08 02:28:30;;;;;;;11.20;1.88;;;14.10;99.90;;;;;;5061169;28;20363;-80
2022/10/08 02:31:24;;;;;;;11.93;2.20;;;14.00;99.90;;;;;;5066797;28;20017;-80
2022/10/08 02:33:59;;;;;;;14.90;2.58;;;13.90;99.90;;;;;;5067078;28;20055;-80
2022/10/08 02:36:30;;;;;;;13.93;2.15;;;13.90;99.90;;;;;;5062283;28;20241;-80
2022/10/08 02:39:00;;;;;;;11.32;2.20;;;13.90;99.90;;;;;;5067376;28;20029;-80
2022/10/08 02:41:33;;;;;;;11.23;3.03;;;13.80;99.90;;;;;;5065112;28;20246;-80
2022/10/08 02:44:04;;;;;;;11.00;2.40;;;13.80;99.90;;;;;;5071267;28;20324;-80
2022/10/08 02:46:36;;;;;;;13.43;2.53;;;13.70;99.90;;;;;;5063523;28;20036;-80
2022/10/08 02:49:07;;;;;;;11.15;2.30;;;13.70;99.90;;;;;;5072427;28;20405;-80
2022/10/08 02:51:38;;;;;;;14.05;2.65;;;13.70;99.90;;;;;;5062276;28;20020;-80
2022/10/08 02:54:05;;;;;;;12.32;2.40;;;13.60;99.90;;;;;;5062548;28;20235;-80
2022/10/08 02:56:40;;;;;;;11.77;2.20;;;13.60;99.90;;;;;;5061063;28;20086;-80
2022/10/08 02:59:09;;;;;;;11.98;2.08;;;13.70;99.90;;;;;;5075447;28;20035;-80
2022/10/08 03:01:43;;;;;;;12.30;1.98;;;13.70;99.90;;;;;;5061535;28;20309;-80
2022/10/08 03:04:18;;;;;;;8.70;2.13;;;13.70;99.90;;;;;;5067860;28;20036;-80
2022/10/08 03:06:47;;;;;;;10.20;2.20;;;13.70;99.90;;;;;;5061318;28;20094;-80
2022/10/08 03:09:17;;;;;;;12.68;2.10;;;13.60;99.90;;;;;;5060832;28;20128;-80
2022/10/08 03:11:43;;;;;;;16.10;2.25;;;13.60;99.90;;;;;;5071906;28;20021;-80
2022/10/08 03:14:12;;;;;;;13.20;2.55;;;13.60;99.90;;;;;;5066723;28;20037;-80
2022/10/08 03:16:40;;;;;;;10.05;2.03;;;13.50;99.90;;;;;;5068731;28;20044;-80
2022/10/08 03:19:09;;;;;;;11.48;2.05;;;13.50;99.90;;;;;;5064929;28;20032;-80
2022/10/08 03:21:38;;;;;;;13.85;2.25;;;13.50;99.90;;;;;;5068302;28;20088;-80
2022/10/08 03:24:06;;;;;;;13.57;2.03;;;13.40;99.90;;;;;;5059747;28;20048;-80
2022/10/08 03:26:31;;;;;;;15.43;2.60;;;13.30;99.90;;;;;;5055496;28;20025;-80
2022/10/08 03:28:57;;;;;;;15.88;2.80;;;13.20;99.90;;;;;;5056718;28;20336;-80
2022/10/08 03:31:23;;;;;;;11.63;2.08;;;13.10;99.90;;;;;;5060636;28;20083;-80
2022/10/08 03:33:53;;;;;;;15.02;2.50;;;13.10;99.90;;;;;;5058920;28;20535;-80
2022/10/08 03:36:20;;;;;;;12.10;2.83;;;13.10;99.90;;;;;;5065067;28;20048;-82
2022/10/08 03:38:46;;;;;;;13.13;2.58;;;13.10;99.90;;;;;;5071432;28;20025;-82
2022/10/08 03:41:12;;;;;;;14.27;2.38;;;13.10;99.90;;;;;;5068763;28;20013;-82
2022/10/08 03:43:37;;;;;;;9.85;2.45;;;13.10;99.90;;;;;;5076187;28;20031;-82
2022/10/08 03:46:03;;;;;;;10.07;2.55;;;13.10;99.90;;;;;;5069776;28;20120;-82
2022/10/08 03:48:30;;;;;;;14.60;2.70;;;13.00;99.90;;;;;;5066494;28;20075;-83
2022/10/08 03:51:01;;;;;;;14.35;2.50;;;13.00;99.90;;;;;;5057602;28;20107;-82
2022/10/08 03:53:30;;;;;;;15.95;2.78;;;13.00;99.90;;;;;;5059659;28;20211;-83
2022/10/08 03:56:00;;;;;;;14.85;2.60;;;12.90;99.90;;;;;;5058242;28;20027;-82
2022/10/08 03:58:26;;;;;;;10.15;2.60;;;12.90;99.90;;;;;;5066619;28;20280;-83
2022/10/08 04:01:00;;;;;;;13.85;2.38;;;12.90;99.90;;;;;;5064219;28;20079;-83
2022/10/08 04:03:28;;;;;;;13.10;3.28;;;12.80;99.90;;;;;;5058920;28;20065;-83
2022/10/08 04:05:54;;;;;;;14.38;2.40;;;12.70;99.90;;;;;;5062012;28;20202;-82
2022/10/08 04:08:20;;;;;;;12.57;2.85;;;12.70;99.90;;;;;;5063712;28;20067;-82
2022/10/08 04:10:45;;;;;;;11.85;3.00;;;12.70;99.90;;;;;;5073749;28;20017;-82
2022/10/08 04:13:11;;;;;;;9.25;2.55;;;12.60;99.90;;;;;;5072574;28;20377;-82
2022/10/08 04:15:38;;;;;;;16.05;3.30;;;12.60;99.90;;;;;;5063440;28;20498;-82
2022/10/08 04:18:05;;;;;;;15.95;2.78;;;12.60;99.90;;;;;;5069677;28;20096;-83
2022/10/08 04:20:31;;;;;;;14.77;3.03;;;12.60;99.90;;;;;;5066365;28;20021;-82
2022/10/08 04:22:59;;;;;;;12.43;2.42;;;12.60;99.90;;;;;;5067005;28;20036;-82
2022/10/08 04:25:24;;;;;;;14.23;3.03;;;12.60;99.90;;;;;;5067635;28;20095;-82
2022/10/08 04:27:50;;;;;;;13.30;2.70;;;12.50;99.90;;;;;;5070448;28;20037;-82
2022/10/08 04:30:16;;;;;;;12.82;3.33;;;12.50;99.90;;;;;;5063212;28;20309;-81
2022/10/08 04:32:42;;;;;;;11.65;2.75;;;12.50;99.90;;;;;;5063561;28;20040;-81
2022/10/08 04:35:09;;;;;;;18.58;2.75;;;12.50;99.90;;;;;;5067256;28;20020;-81
2022/10/08 04:37:35;;;;;;;12.43;2.85;;;12.50;99.90;;;;;;5071432;28;20063;-81
2022/10/08 04:40:01;;;;;;;12.48;2.83;;;12.50;99.90;;;;;;5065161;28;20037;-80
2022/10/08 04:42:26;;;;;;;13.43;3.28;;;12.50;99.90;;;;;;5070779;28;20084;-81
2022/10/08 04:44:52;;;;;;;10.93;3.00;;;12.50;99.90;;;;;;5072973;28;20028;-81
2022/10/08 04:47:17;;;;;;;13.60;3.67;;;12.40;99.90;;;;;;5065824;28;20048;-80
2022/10/08 04:49:44;;;;;;;14.90;2.75;;;12.40;99.90;;;;;;5059949;28;20358;-80
2022/10/08 04:52:09;;;;;;;12.98;3.30;;;12.40;99.90;;;;;;5062991;28;20024;-80
2022/10/08 04:54:35;;;;;;;15.85;3.00;;;12.40;99.90;;;;;;5059618;28;20025;-80
2022/10/08 04:57:01;;;;;;;16.13;3.22;;;12.40;99.90;;;;;;5059343;28;20025;-80
2022/10/08 04:59:26;;;;;;;13.70;3.08;;;12.40;99.90;;;;;;5077048;28;20031;-80
2022/10/08 05:01:58;;;;;;;19.75;3.60;;;12.40;99.90;;;;;;5062738;28;20021;-81
2022/10/08 05:04:23;;;;;;;11.52;3.15;;;12.30;99.90;;;;;;5064871;28;20082;-80
2022/10/08 05:06:49;;;;;;;13.52;2.63;;;12.30;99.90;;;;;;5055910;28;20029;-80
2022/10/08 05:09:15;;;;;;;10.25;3.10;;;12.30;99.90;;;;;;5062673;28;20033;-80
2022/10/08 05:11:41;;;;;;;17.77;3.03;;;12.30;99.90;;;;;;5068353;28;20023;-80
2022/10/08 05:14:07;;;;;;;9.15;2.55;;;12.30;99.90;;;;;;5058434;28;20041;-81
2022/10/08 05:16:33;;;;;;;18.90;3.45;;;12.20;99.90;;;;;;5070854;28;20079;-80
2022/10/08 05:18:58;;;;;;;12.18;2.78;;;12.20;99.90;;;;;;5065149;28;20036;-80
2022/10/08 05:21:26;;;;;;;8.50;2.53;;;12.20;99.90;;;;;;5065515;28;20029;-81
2022/10/08 05:23:54;;;;;;;12.98;2.38;;;12.20;99.90;;;;;;5068097;28;20086;-80
2022/10/08 05:26:26;;;;;;;14.00;2.88;;;12.20;99.90;;;;;;5066203;28;20333;-81
2022/10/08 05:28:55;;;;;;;11.88;3.00;;;12.10;99.90;;;;;;5071413;28;20305;-80
2022/10/08 05:31:21;;;;;;;11.90;2.58;;;12.10;99.90;;;;;;5061628;28;20024;-81
2022/10/08 05:33:47;;;;;;;11.93;2.58;;;12.10;99.90;;;;;;5059576;28;20352;-80
2022/10/08 05:36:21;;;;;;;10.07;2.60;;;12.00;99.90;;;;;;5068600;28;20078;-80
2022/10/08 05:38:47;;;;;;;10.48;2.78;;;12.00;99.90;;;;;;5063376;28;20648;-80
2022/10/08 05:41:23;;;;;;;15.30;2.90;;;12.00;99.90;;;;;;5069003;28;20041;-80
2022/10/08 05:43:49;;;;;;;11.00;2.60;;;11.90;99.90;;;;;;5065124;28;20029;-80
2022/10/08 05:46:16;;;;;;;9.27;2.67;;;11.90;99.90;;;;;;5069912;28;20032;-81
2022/10/08 05:48:42;;;;;;;9.85;3.00;;;11.90;99.90;;;;;;5069985;28;20016;-81
2022/10/08 05:51:14;;;;;;;10.63;2.90;;;11.90;99.90;;;;;;5069900;28;20016;-81
2022/10/08 05:53:43;;;;;;;13.00;3.40;;;11.80;99.90;;;;;;5067738;28;20032;-81
2022/10/08 05:56:11;;;;;;;12.52;3.17;;;11.80;99.90;;;;;;5069749;28;20091;-80
2022/10/08 05:58:39;;;;;;;12.68;2.80;;;11.70;99.90;;;;;;5067732;28;20032;-81
2022/10/08 06:01:08;;;;;;;15.38;3.72;;;11.70;99.90;;;;;;5071179;28;20220;-80
2022/10/08 06:03:34;;;;;;;19.40;5.07;;;11.70;99.90;;;;;;5069967;28;20118;-80
2022/10/08 06:06:09;;;;;;;13.65;3.78;;;11.70;99.90;;;;;;5074061;28;20126;-80
2022/10/08 06:08:35;;;;;;;16.08;3.67;;;11.70;99.90;;;;;;5075262;28;20025;-80
2022/10/08 06:11:03;;;;;;;13.80;2.95;;;11.70;99.90;;;;;;5068175;28;20048;-81
2022/10/08 06:13:29;;;;;;;15.82;3.53;;;11.70;99.90;;;;;;5080947;28;20028;-81
2022/10/08 06:16:01;;;;;;;15.93;3.85;;;11.70;99.90;;;;;;5080312;28;20026;-80
2022/10/08 06:18:29;;;;;;;17.45;3.60;;;11.70;99.90;;;;;;5061581;28;20051;-80
2022/10/08 06:20:55;;;;;;;15.02;3.58;;;11.70;99.90;;;;;;5052851;28;20395;-80
2022/10/08 06:23:22;;;;;;;11.45;2.60;;;11.70;99.90;;;;;;5051430;28;20021;-80
2022/10/08 06:25:49;;;;;;;13.68;3.25;;;11.70;99.90;;;;;;5053537;28;20501;-81
2022/10/08 06:28:15;;;;;;;12.65;3.10;;;11.70;99.90;;;;;;5061458;28;20027;-80
2022/10/08 06:30:41;;;;;;;15.48;2.95;;;11.70;99.90;;;;;;5062112;28;20057;-80
2022/10/08 06:33:08;;;;;;;16.65;2.92;;;11.70;99.90;;;;;;5062998;28;20052;-82
2022/10/08 06:35:35;;;;;;;9.75;3.33;;;11.70;99.90;;;;;;5054627;28;20590;-81
2022/10/08 06:38:02;;;;;;;11.15;2.92;;;11.70;99.90;;;;;;5056709;28;20392;-82
2022/10/08 06:40:30;;;;;;;14.15;2.70;;;11.70;99.90;;;;;;5053165;28;20025;-81
2022/10/08 06:42:56;;;;;;;12.27;2.97;;;11.80;99.90;;;;;;5054487;28;20032;-81
2022/10/08 06:45:22;;;;;;;11.98;3.20;;;11.80;99.90;;;;;;5056754;28;20433;-81
2022/10/08 06:47:48;;;;;;;10.38;2.95;;;11.80;99.90;;;;;;5050826;28;20060;-81
2022/10/08 06:50:14;;;;;;;12.88;2.83;;;11.80;99.90;;;;;;5063312;28;20028;-81
2022/10/08 06:52:39;;;;;;;11.48;2.45;;;11.90;99.90;;;;;;5056207;28;20037;-81
2022/10/08 06:55:05;;;;;;;7.80;2.80;;;11.90;99.90;;;;;;5059610;28;20093;-81
2022/10/08 06:57:31;;;;;;;10.68;3.10;;;12.00;99.90;;;;;;5058016;28;20259;-81
2022/10/08 06:59:57;;;;;;;9.55;2.58;;;12.00;99.90;;;;;;5064746;28;20096;-81
2022/10/08 07:02:23;;;;;;;15.80;2.90;;;12.20;99.90;;;;;;5052972;28;20028;-81
2022/10/08 07:04:49;;;;;;;11.05;2.60;;;12.20;99.90;;;;;;5054135;28;20029;-81
2022/10/08 07:07:15;;;;;;;12.63;3.00;;;12.30;99.90;;;;;;5050121;28;20024;-81
2022/10/08 07:09:40;;;;;;;9.88;2.78;;;12.40;99.90;;;;;;5051701;28;20554;-81
2022/10/08 07:12:06;;;;;;;12.82;2.63;;;12.40;99.90;;;;;;5049955;28;20025;-81
2022/10/08 07:14:31;;;;;;;14.20;2.92;;;12.50;99.90;;;;;;5058499;28;20035;-81
2022/10/08 07:16:57;;;;;;;10.23;2.22;;;12.60;99.90;;;;;;5062959;28;20559;-80
2022/10/08 07:19:23;;;;;;;13.80;2.95;;;12.70;99.90;;;;;;5067425;28;20025;-81
2022/10/08 07:21:49;;;;;;;13.70;2.80;;;12.70;99.90;;;;;;5063066;28;20016;-81
2022/10/08 07:24:14;;;;;;;8.77;2.88;;;12.80;99.90;;;;;;5058734;28;20053;-81
2022/10/08 07:26:40;;;;;;;12.30;2.90;;;12.90;99.90;;;;;;5066378;28;20029;-80
2022/10/08 07:29:15;;;;;;;13.57;2.60;;;12.80;99.90;;;;;;5059378;28;20377;-81
2022/10/08 07:31:40;;;;;;;13.43;3.15;;;12.90;99.90;;;;;;5053448;28;20023;-81
2022/10/08 07:34:09;;;;;;;10.23;2.40;;;13.00;99.90;;;;;;5053719;28;20045;-81
2022/10/08 07:36:36;;;;;;;9.80;2.53;;;13.00;99.90;;;;;;5061492;28;20017;-81
2022/10/08 07:39:07;;;;;;;11.68;2.70;;;13.00;99.90;;;;;;5070011;28;20037;-82
2022/10/08 07:41:33;;;;;;;6.97;2.15;;;13.10;99.90;;;;;;5062783;28;20538;-81
2022/10/08 07:44:01;;;;;;;12.55;2.78;;;13.20;99.90;;;;;;5058117;28;20025;-81
2022/10/08 07:46:33;;;;;;;11.07;2.88;;;13.30;99.90;;;;;;5061525;28;20471;-81
2022/10/08 07:49:00;;;;;;;11.35;3.20;;;13.40;99.90;;;;;;5056712;28;20017;-82
2022/10/08 07:51:27;;;;;;;10.25;2.65;;;13.40;99.90;;;;;;5058572;28;20024;-81
2022/10/08 07:53:53;;;;;;;12.63;3.10;;;13.50;99.90;;;;;;5054936;28;20037;-81
2022/10/08 07:56:20;;;;;;;9.55;2.50;;;13.50;99.90;;;;;;5055698;28;20503;-88
2022/10/08 07:58:46;;;;;;;10.48;2.67;;;13.60;99.90;;;;;;5057249;28;20558;-88
2022/10/08 08:01:14;;;;;;;11.27;2.67;;;13.70;99.90;;;;;;5060258;28;20021;-82
2022/10/08 08:03:41;;;;;;;12.52;3.13;;;13.80;99.90;;;;;;5055714;28;20024;-82
2022/10/08 08:06:10;;;;;;;14.38;2.72;;;13.90;99.90;;;;;;5056831;28;20396;-82
2022/10/08 08:08:38;;;;;;;15.48;2.63;;;13.90;99.90;;;;;;5054311;28;20272;-82
2022/10/08 08:11:06;;;;;;;10.52;2.25;;;14.00;99.90;;;;;;5054143;28;20021;-82
2022/10/08 08:13:34;;;;;;;7.68;2.42;;;14.10;99.90;;;;;;5052373;28;20029;-82
2022/10/08 08:16:02;;;;;;;11.48;2.42;;;14.20;99.90;;;;;;5059099;28;20057;-82
2022/10/08 08:18:28;;;;;;;11.55;3.33;;;14.20;99.90;;;;;;5063052;28;20435;-81
2022/10/08 08:21:02;;;;;;;12.80;2.63;;;14.30;99.90;;;;;;5057201;28;20025;-82
2022/10/08 08:23:33;;;;;;;11.18;2.30;;;14.40;99.90;;;;;;5060840;28;20028;-80
2022/10/08 08:26:05;;;;;;;10.68;2.28;;;14.50;99.90;;;;;;5057138;28;20036;-82
2022/10/08 08:28:31;;;;;;;7.05;2.20;;;14.60;99.90;;;;;;5064490;28;20020;-81
2022/10/08 08:31:14;;;;;;;11.65;2.17;;;14.70;99.90;;;;;;5059014;28;20090;-83
2022/10/08 08:33:41;;;;;;;8.48;1.75;;;14.80;99.90;;;;;;5055382;28;20051;-79
2022/10/08 08:36:08;;;;;;;14.45;2.40;;;14.90;99.90;;;;;;5055492;28;20035;-78
2022/10/08 08:38:36;;;;;;;9.45;2.20;;;15.00;99.90;;;;;;5059868;28;20240;-79
2022/10/08 08:41:15;;;;;;;12.82;2.33;;;15.20;99.90;;;;;;5063792;28;20285;-78
2022/10/08 08:43:41;;;;;;;13.68;2.25;;;15.20;99.90;;;;;;5062645;28;20024;-78
2022/10/08 08:46:08;;;;;;;4.88;1.50;;;15.40;99.90;;;;;;5060105;28;20163;-78
2022/10/08 08:48:36;;;;;;;10.25;1.90;;;15.50;99.90;;;;;;5059324;28;20025;-79
2022/10/08 08:51:03;;;;;;;9.65;2.10;;;15.50;99.90;;;;;;5056323;28;20013;-80
2022/10/08 08:53:29;;;;;;;9.80;1.85;;;15.70;99.90;;;;;;5055990;28;20033;-78
2022/10/08 08:55:58;;;;;;;7.35;1.65;;;15.70;99.90;;;;;;5055347;28;20017;-79
2022/10/08 08:58:36;;;;;;;7.85;2.05;;;15.90;99.90;;;;;;5062282;28;20114;-78
2022/10/08 09:01:23;;;;;;;8.32;1.67;;;15.90;99.90;;;;;;5061156;28;20420;-78
2022/10/08 09:03:58;;;;;;;8.00;2.00;;;16.00;99.90;;;;;;5054876;28;20252;-80
2022/10/08 09:06:27;;;;;;;11.18;1.90;;;16.20;99.90;;;;;;5056246;28;20432;-79
2022/10/08 09:09:18;;;;;;;9.30;2.15;;;16.20;99.90;;;;;;5053441;28;20071;-84
2022/10/08 09:11:44;;;;;;;12.15;2.15;;;16.30;99.90;;;;;;5062366;28;20045;-84
2022/10/08 09:14:13;;;;;;;8.32;1.60;;;16.40;99.90;;;;;;5052157;28;20378;-83
2022/10/08 09:16:40;;;;;;;4.78;1.48;;;16.50;99.90;;;;;;5063688;28;20099;-83
2022/10/08 09:19:05;;;;;;;8.15;1.98;;;16.60;99.90;;;;;;5057435;28;20182;-83
2022/10/08 09:21:33;;;;;;;7.65;1.70;;;16.70;99.90;;;;;;5060235;28;20142;-79
2022/10/08 09:23:59;;;;;;;6.85;1.63;;;16.80;99.90;;;;;;5056451;28;20100;-80
2022/10/08 09:26:35;;;;;;;10.05;2.20;;;16.90;99.90;;;;;;5056989;28;20025;-80
2022/10/08 09:29:02;;;;;;;10.13;2.50;;;17.00;99.90;;;;;;5060444;28;20578;-79
2022/10/08 09:31:43;;;;;;;11.60;1.75;;;17.00;99.90;;;;;;5059220;28;20036;-81
2022/10/08 09:34:17;;;;;;;7.72;1.50;;;17.10;99.90;;;;;;5052058;28;20053;-80
2022/10/08 09:36:51;;;;;;;7.22;1.58;;;17.20;99.90;;;;;;5052436;28;20024;-80
2022/10/08 09:39:26;;;;;;;9.30;1.60;;;17.20;99.90;;;;;;5050575;28;20028;-80
2022/10/08 09:42:06;;;;;;;6.53;1.80;;;17.30;99.90;;;;;;5060442;28;20029;-79
2022/10/08 09:44:44;;;;;;;7.40;1.55;;;17.40;99.90;;;;;;5056975;28;20056;-79
2022/10/08 09:47:15;;;;;;;10.32;1.80;;;17.50;99.90;;;;;;5060281;28;20023;-79
2022/10/08 09:49:42;;;;;;;11.13;1.85;;;17.60;99.90;;;;;;5055005;28;20025;-79
2022/10/08 09:52:27;;;;;;;9.77;1.70;;;17.70;99.90;;;;;;5057197;28;20496;-80
2022/10/08 09:55:05;;;;;;;5.68;1.30;;;17.70;99.90;;;;;;5055076;28;20095;-79
2022/10/08 09:57:32;;;;;;;7.78;1.65;;;17.80;99.90;;;;;;5075897;28;20025;-80
2022/10/08 10:00:04;;;;;;;4.93;1.30;;;17.80;99.90;;;;;;5077412;28;20332;-80
2022/10/08 10:02:35;;;;;;;8.60;1.85;;;18.00;99.90;;;;;;5066146;28;20173;-80
2022/10/08 10:05:05;;;;;;;7.85;1.40;;;18.10;99.90;;;;;;5064015;28;20278;-79
2022/10/08 10:07:43;;;;;;;10.30;1.60;;;18.20;99.90;;;;;;5054531;28;20029;-80
2022/10/08 10:10:40;;;;;;;7.68;1.58;;;18.30;99.90;;;;;;5062292;28;20017;-80
2022/10/08 10:13:24;;;;;;;7.47;1.60;;;18.30;99.90;;;;;;5052997;28;20425;-80
2022/10/08 10:15:59;;;;;;;5.63;1.13;;;18.40;99.90;;;;;;5050391;28;20033;-82
2022/10/08 10:18:29;;;;;;;7.60;1.02;;;18.50;99.90;;;;;;5063459;28;20009;-82
2022/10/08 10:21:04;;;;;;;8.45;1.38;;;18.50;99.90;;;;;;5055921;28;20420;-82
2022/10/08 10:23:45;;;;;;;6.13;1.40;;;18.60;99.90;;;;;;5064903;28;20354;-81
2022/10/08 10:26:15;;;;;;;6.97;1.25;;;18.70;99.90;;;;;;5056466;28;20611;-81
2022/10/08 10:28:56;;;;;;;5.13;1.17;;;18.80;99.90;;;;;;5058790;28;20266;-79
2022/10/08 10:31:22;;;;;;;6.38;1.50;;;18.90;99.90;;;;;;5059452;28;20017;-81
2022/10/08 10:34:00;;;;;;;7.15;1.20;;;19.00;99.90;;;;;;5055868;28;20394;-80
2022/10/08 10:36:35;;;;;;;6.15;1.35;;;19.00;99.90;;;;;;5057656;28;20062;-81
2022/10/08 10:39:13;;;;;;;5.30;1.20;;;19.20;99.90;;;;;;5053622;28;20150;-81
2022/10/08 10:41:44;;;;;;;6.28;1.77;;;19.20;99.90;;;;;;5060466;28;20029;-80
2022/10/08 10:44:12;;;;;;;4.25;0.70;;;19.20;99.90;;;;;;5060643;28;20485;-81
2022/10/08 10:46:48;;;;;;;9.35;1.75;;;19.30;99.90;;;;;;5058146;28;20028;-81
2022/10/08 10:49:17;;;;;;;2.55;0.85;;;19.40;99.90;;;;;;5067209;28;20013;-81
2022/10/08 10:52:04;;;;;;;6.10;1.15;;;19.30;99.90;;;;;;5059928;28;20032;-81
2022/10/08 10:55:00;;;;;;;4.93;1.00;;;19.50;99.90;;;;;;5057881;28;20543;-78
2022/10/08 10:57:47;;;;;;;4.32;1.30;;;19.50;99.90;;;;;;5056789;28;20025;-81
2022/10/08 11:00:45;;;;;;;5.70;1.08;;;19.70;99.90;;;;;;5067791;28;20033;-80
2022/10/08 11:03:22;;;;;;;7.50;1.52;;;19.80;99.90;;;;;;5069869;28;20017;-80
2022/10/08 11:05:56;;;;;;;8.43;1.73;;;19.90;99.90;;;;;;5073111;28;20136;-80
2022/10/08 11:08:34;;;;;;;3.85;1.00;;;20.00;99.90;;;;;;5072940;28;20063;-81
2022/10/08 11:11:12;;;;;;;7.30;1.08;;;20.00;99.90;;;;;;5073257;28;20646;-80
2022/10/08 11:14:14;;;;;;;3.42;0.77;;;20.20;99.90;;;;;;5058545;28;20125;-82
2022/10/08 11:16:59;;;;;;;6.65;1.10;;;20.30;99.90;;;;;;5066782;28;20029;-81
2022/10/08 11:20:01;;;;;;;6.75;1.10;;;20.30;99.90;;;;;;5060233;28;20019;-80
2022/10/08 11:22:35;;;;;;;7.65;1.20;;;20.40;99.90;;;;;;5057848;28;20029;-81
2022/10/08 11:25:27;;;;;;;5.45;1.25;;;20.50;99.90;;;;;;5055501;28;20021;-81
2022/10/08 11:28:07;;;;;;;4.70;1.00;;;20.50;99.90;;;;;;5055413;28;20540;-81
2022/10/08 11:31:21;;;;;;;5.88;1.10;;;20.50;99.90;;;;;;5059063;28;20124;-81
2022/10/08 11:33:47;;;;;;;3.50;1.02;;;20.50;99.90;;;;;;5043761;28;20159;-81
2022/10/08 11:36:26;;;;;;;7.65;1.13;;;20.60;99.90;;;;;;5061860;28;20028;-81
2022/10/08 11:38:56;;;;;;;6.05;1.02;;;20.70;99.90;;;;;;5058589;28;20031;-81
2022/10/08 11:41:35;;;;;;;4.43;0.95;;;20.80;99.60;;;;;;5061034;28;20023;-82
2022/10/08 11:44:05;;;;;;;4.50;0.90;;;20.80;99.60;;;;;;5056518;28;20108;-82
2022/10/08 11:46:35;;;;;;;5.30;1.17;;;20.90;99.60;;;;;;5058684;28;20039;-81
2022/10/08 11:49:25;;;;;;;3.58;1.15;;;21.00;98.90;;;;;;5055167;28;20033;-82
2022/10/08 11:51:52;;;;;;;6.22;0.93;;;21.10;98.90;;;;;;5055776;28;20025;-82
2022/10/08 11:55:00;;;;;;;;;;;;;;;;;;;;;
2022/10/08 11:57:44;;;;;;;;;;;;;;;;;;;;;
2022/10/08 12:00:47;;;;;;;4.93;1.45;;;21.20;98.60;;;;;;5064129;28;20044;-83
2022/10/08 12:03:33;;;;;;;3.65;0.90;;;21.20;98.90;;;;;;5066044;28;20029;-82
2022/10/08 12:06:22;;;;;;;10.38;2.53;;;21.30;99.10;;;;;;5063062;28;20040;-83
2022/10/08 12:08:54;;;;;;;5.28;1.10;;;21.40;99.00;;;;;;5055110;28;20491;-83
2022/10/08 12:11:34;;;;;;;3.92;1.13;;;21.30;98.30;;;;;;5055834;28;20039;-82
2022/10/08 12:14:13;;;;;;;3.70;1.20;;;21.40;99.00;;;;;;5053380;28;20037;-83
2022/10/08 12:16:47;;;;;;;4.93;0.93;;;21.50;98.10;;;;;;5053059;28;20013;-83
2022/10/08 12:19:34;;;;;;;4.10;0.80;;;21.40;98.10;;;;;;5065875;28;20051;-83
2022/10/08 12:22:23;;;;;;;5.57;1.35;;;21.40;97.90;;;;;;5065969;28;20480;-82
2022/10/08 12:24:54;;;;;;;5.47;0.85;;;21.50;98.60;;;;;;5060249;28;20512;-83
2022/10/08 12:27:20;;;;;;;5.55;1.05;;;21.50;98.80;;;;;;5057388;28;20032;-83
2022/10/08 12:29:58;;;;;;;5.13;0.98;;;21.60;99.00;;;;;;5057552;28;20026;-83
2022/10/08 12:32:26;;;;;;;6.40;0.88;;;21.70;98.60;;;;;;5054676;28;20073;-83
2022/10/08 12:34:52;;;;;;;5.55;1.38;;;21.70;98.90;;;;;;5055801;28;20041;-82
2022/10/08 12:37:49;;;;;;;3.13;0.70;;;21.90;98.20;;;;;;5053473;28;20485;-83
2022/10/08 12:40:57;;;;;;;6.60;1.02;;;21.90;98.10;;;;;;5053452;28;20095;-83
2022/10/08 12:43:26;;;;;;;6.10;1.02;;;21.90;98.40;;;;;;5040945;28;20221;-83
2022/10/08 12:45:57;;;;;;;3.47;0.82;;;22.10;98.10;;;;;;5061905;28;20461;-83
2022/10/08 12:48:34;;;;;;;3.80;0.70;;;22.10;97.70;;;;;;5058182;28;20550;-85
2022/10/08 12:51:13;;;;;;;2.92;0.75;;;22.20;97.60;;;;;;5058485;28;20555;-84
2022/10/08 12:53:44;;;;;;;4.10;0.80;;;22.30;97.60;;;;;;5057651;28;20045;-84
2022/10/08 12:56:19;;;;;;;4.22;0.77;;;22.20;97.70;;;;;;5055024;28;20019;-84
2022/10/08 12:58:47;;;;;;;6.10;1.02;;;22.30;97.40;;;;;;5065981;28;20078;-84
2022/10/08 13:01:16;;;;;;;3.65;0.90;;;22.30;97.30;;;;;;5062376;28;20386;-84
2022/10/08 13:03:41;;;;;;;4.68;0.90;;;22.40;97.80;;;;;;5055780;28;20061;-84
2022/10/08 13:06:36;;;;;;;1.73;0.52;;;22.40;97.30;;;;;;5063057;28;20101;-84
2022/10/08 13:09:16;;;;;;;3.63;1.00;;;22.50;96.70;;;;;;5049257;28;20072;-84